createdAt,value
2023-01-09T00:00:58.487Z,6.60
2023-01-09T00:03:25.612Z,6.60
2023-01-09T00:05:52.931Z,6.60
2023-01-09T00:08:19.860Z,6.60
2023-01-09T00:10:49.463Z,6.60
2023-01-09T00:13:18.046Z,6.70
2023-01-09T00:15:45.273Z,6.70
2023-01-09T00:18:12.083Z,6.70
2023-01-09T00:20:38.848Z,6.70
2023-01-09T00:23:06.147Z,6.80
2023-01-09T00:25:33.547Z,6.70
2023-01-09T00:28:00.361Z,6.70
2023-01-09T00:30:27.603Z,6.70
2023-01-09T00:32:55.482Z,6.70
2023-01-09T00:35:25.736Z,6.70
2023-01-09T00:37:52.471Z,6.70
2023-01-09T00:40:20.307Z,6.60
2023-01-09T00:42:53.832Z,6.50
2023-01-09T00:45:28.863Z,6.50
2023-01-09T00:48:09.445Z,6.50
2023-01-09T00:50:37.617Z,6.40
2023-01-09T00:53:19.093Z,6.40
2023-01-09T00:55:46.046Z,6.30
2023-01-09T00:58:13.126Z,6.40
2023-01-09T01:00:39.957Z,6.30
2023-01-09T01:03:06.778Z,6.30
2023-01-09T01:05:51.983Z,6.30
2023-01-09T01:08:20.283Z,6.20
2023-01-09T01:10:48.544Z,6.20
2023-01-09T01:13:15.431Z,6.20
2023-01-09T01:15:44.615Z,6.10
2023-01-09T01:18:13.138Z,6.00
2023-01-09T01:20:45.143Z,6.00
2023-01-09T01:23:12.736Z,6.00
2023-01-09T01:25:43.111Z,5.90
2023-01-09T01:28:10.592Z,5.90
2023-01-09T01:30:43.002Z,5.90
2023-01-09T01:33:11.197Z,5.90
2023-01-09T01:35:38.588Z,5.90
2023-01-09T01:38:05.828Z,5.90
2023-01-09T01:40:32.710Z,5.90
2023-01-09T01:42:59.579Z,5.90
2023-01-09T01:45:29.943Z,5.90
2023-01-09T01:48:05.270Z,5.80
2023-01-09T01:50:35.141Z,5.90
2023-01-09T01:53:37.164Z,5.90
2023-01-09T01:56:13.842Z,5.90
2023-01-09T01:58:57.399Z,5.90
2023-01-09T02:01:25.741Z,5.90
2023-01-09T02:03:58.116Z,5.80
2023-01-09T02:06:26.477Z,5.80
2023-01-09T02:08:54.618Z,5.80
2023-01-09T02:11:22.386Z,5.80
2023-01-09T02:13:49.649Z,5.80
2023-01-09T02:16:34.490Z,5.80
2023-01-09T02:19:10.041Z,5.80
2023-01-09T02:22:07.509Z,5.80
2023-01-09T02:25:21.478Z,5.80
2023-01-09T02:28:30.166Z,5.80
2023-01-09T02:31:33.272Z,5.70
2023-01-09T02:34:21.249Z,5.70
2023-01-09T02:37:14.181Z,5.70
2023-01-09T02:39:56.196Z,5.70
2023-01-09T02:42:25.421Z,5.80
2023-01-09T02:44:52.719Z,5.70
2023-01-09T02:47:19.988Z,5.70
2023-01-09T02:50:02.456Z,5.70
2023-01-09T02:52:41.157Z,5.80
2023-01-09T02:55:10.710Z,5.70
2023-01-09T02:58:05.170Z,5.70
2023-01-09T03:01:10.571Z,5.60
2023-01-09T03:04:07.263Z,5.60
2023-01-09T03:07:25.144Z,5.70
2023-01-09T03:10:02.897Z,5.60
2023-01-09T03:12:33.696Z,5.60
2023-01-09T03:15:03.331Z,5.60
2023-01-09T03:17:41.036Z,5.60
2023-01-09T03:20:13.558Z,5.60
2023-01-09T03:22:52.649Z,5.60
2023-01-09T03:25:19.390Z,5.60
2023-01-09T03:27:46.225Z,5.60
2023-01-09T03:30:13.205Z,5.60
2023-01-09T03:32:39.998Z,5.60
2023-01-09T03:35:07.162Z,5.50
2023-01-09T03:37:34.883Z,5.50
2023-01-09T03:40:01.641Z,5.50
2023-01-09T03:42:28.468Z,5.50
2023-01-09T03:44:55.198Z,5.60
2023-01-09T03:47:22.052Z,5.60
2023-01-09T03:49:48.828Z,5.60
2023-01-09T03:52:15.602Z,5.50
2023-01-09T03:54:42.363Z,5.50
2023-01-09T03:57:09.396Z,5.50
2023-01-09T03:59:36.414Z,5.60
2023-01-09T04:02:04.173Z,5.50
2023-01-09T04:04:31.126Z,5.50
2023-01-09T04:06:57.851Z,5.50
2023-01-09T04:09:24.659Z,5.50
2023-01-09T04:11:51.443Z,5.50
2023-01-09T04:14:18.346Z,5.50
2023-01-09T04:16:45.267Z,5.50
2023-01-09T04:19:12.141Z,5.50
2023-01-09T04:21:38.897Z,5.50
2023-01-09T04:24:06.191Z,5.50
2023-01-09T04:26:32.984Z,5.40
2023-01-09T04:29:00.469Z,5.50
2023-01-09T04:31:27.402Z,5.40
2023-01-09T04:33:54.144Z,5.40
2023-01-09T04:36:20.952Z,5.40
2023-01-09T04:38:47.785Z,5.40
2023-01-09T04:41:34.583Z,5.30
2023-01-09T04:44:01.393Z,5.40
2023-01-09T04:46:28.179Z,5.30
2023-01-09T04:48:55.227Z,5.20
2023-01-09T04:51:22.064Z,5.20
2023-01-09T04:53:48.823Z,5.10
2023-01-09T04:56:15.547Z,5.10
2023-01-09T04:58:42.376Z,5.00
2023-01-09T05:01:09.194Z,4.90
2023-01-09T05:03:36.084Z,4.90
2023-01-09T05:06:02.879Z,4.80
2023-01-09T05:08:29.632Z,4.70
2023-01-09T05:10:56.422Z,4.70
2023-01-09T05:13:23.129Z,4.60
2023-01-09T05:15:49.887Z,4.50
2023-01-09T05:18:16.678Z,4.50
2023-01-09T05:20:43.469Z,4.30
2023-01-09T05:23:10.242Z,4.20
2023-01-09T05:25:37.139Z,4.00
2023-01-09T05:28:04.001Z,3.90
2023-01-09T05:30:30.770Z,3.90
2023-01-09T05:32:57.497Z,3.80
2023-01-09T05:35:24.259Z,3.80
2023-01-09T05:37:51.128Z,3.70
2023-01-09T05:40:18.041Z,3.60
2023-01-09T05:42:46.342Z,3.50
2023-01-09T05:45:13.182Z,3.50
2023-01-09T05:47:40.252Z,3.40
2023-01-09T05:50:07.841Z,3.40
2023-01-09T05:52:34.581Z,3.40
2023-01-09T05:55:01.328Z,3.40
2023-01-09T05:57:28.824Z,3.50
2023-01-09T05:59:55.539Z,3.50
2023-01-09T06:02:22.421Z,3.60
2023-01-09T06:04:49.355Z,3.70
2023-01-09T06:07:20.402Z,3.80
2023-01-09T06:09:48.476Z,3.90
2023-01-09T06:12:15.194Z,4.00
2023-01-09T06:14:41.967Z,4.00
2023-01-09T06:17:09.151Z,4.10
2023-01-09T06:19:35.904Z,4.10
2023-01-09T06:22:02.786Z,4.20
2023-01-09T06:24:29.541Z,4.20
2023-01-09T06:26:56.354Z,4.30
2023-01-09T06:29:23.151Z,4.30
2023-01-09T06:31:49.932Z,4.30
2023-01-09T06:34:16.760Z,4.40
2023-01-09T06:36:43.578Z,4.40
2023-01-09T06:39:10.350Z,4.40
2023-01-09T06:41:37.588Z,4.40
2023-01-09T06:44:04.408Z,4.40
2023-01-09T06:46:31.303Z,4.50
2023-01-09T06:48:58.093Z,4.50
2023-01-09T06:51:24.876Z,4.50
2023-01-09T06:53:51.658Z,4.50
2023-01-09T06:56:19.995Z,4.50
2023-01-09T06:58:46.844Z,4.50
2023-01-09T07:01:13.876Z,4.50
2023-01-09T07:03:40.847Z,4.50
2023-01-09T07:06:07.834Z,4.50
2023-01-09T07:08:34.665Z,4.50
2023-01-09T07:11:01.484Z,4.50
2023-01-09T07:13:28.223Z,4.50
2023-01-09T07:15:55.000Z,4.40
2023-01-09T07:18:21.804Z,4.50
2023-01-09T07:20:49.248Z,4.50
2023-01-09T07:23:16.487Z,4.50
2023-01-09T07:25:43.644Z,4.50
2023-01-09T07:28:10.579Z,4.50
2023-01-09T07:30:37.390Z,4.50
2023-01-09T07:33:04.346Z,4.60
2023-01-09T07:35:31.189Z,4.60
2023-01-09T07:37:58.068Z,4.60
2023-01-09T07:40:24.846Z,4.60
2023-01-09T07:42:54.788Z,4.50
2023-01-09T07:45:21.708Z,4.50
2023-01-09T07:47:48.525Z,4.60
2023-01-09T07:50:15.599Z,4.60
2023-01-09T07:52:46.477Z,4.60
2023-01-09T07:55:16.020Z,4.60
2023-01-09T07:57:43.446Z,4.60
2023-01-09T08:00:11.366Z,4.60
2023-01-09T08:02:38.214Z,4.70
2023-01-09T08:05:06.535Z,4.70
2023-01-09T08:07:33.298Z,4.70
2023-01-09T08:10:00.105Z,4.70
2023-01-09T08:12:26.865Z,4.70
2023-01-09T08:14:54.774Z,4.70
2023-01-09T08:17:21.560Z,4.60
2023-01-09T08:19:48.290Z,4.60
2023-01-09T08:22:15.026Z,4.60
2023-01-09T08:24:41.780Z,4.50
2023-01-09T08:27:08.582Z,4.60
2023-01-09T08:29:35.370Z,4.70
2023-01-09T08:32:02.161Z,4.80
2023-01-09T08:34:29.044Z,4.90
2023-01-09T08:36:55.885Z,5.00
2023-01-09T08:39:22.638Z,5.00
2023-01-09T08:42:07.654Z,5.00
2023-01-09T08:44:53.314Z,5.00
2023-01-09T08:47:23.918Z,5.00
2023-01-09T08:49:50.741Z,5.10
2023-01-09T08:52:17.617Z,5.20
2023-01-09T08:54:44.319Z,5.20
2023-01-09T08:57:11.111Z,5.10
2023-01-09T08:59:37.911Z,5.00
2023-01-09T09:02:04.772Z,5.00
2023-01-09T09:04:31.640Z,5.00
2023-01-09T09:06:58.371Z,4.90
2023-01-09T09:09:25.789Z,5.00
2023-01-09T09:11:52.953Z,5.10
2023-01-09T09:14:38.658Z,5.30
2023-01-09T09:17:05.547Z,5.30
2023-01-09T09:19:32.453Z,5.30
2023-01-09T09:21:59.200Z,5.40
2023-01-09T09:24:25.982Z,5.50
2023-01-09T09:26:52.776Z,5.50
2023-01-09T09:29:19.558Z,5.50
2023-01-09T09:31:46.275Z,5.50
2023-01-09T09:34:13.646Z,5.60
2023-01-09T09:36:40.439Z,5.60
2023-01-09T09:39:08.398Z,5.50
2023-01-09T09:42:37.304Z,5.50
2023-01-09T09:45:38.196Z,5.50
2023-01-09T09:48:30.099Z,5.50
2023-01-09T09:51:14.889Z,5.50
2023-01-09T09:54:08.907Z,5.50
2023-01-09T09:56:48.802Z,5.50
2023-01-09T09:59:21.298Z,5.60
2023-01-09T10:01:55.413Z,5.70
2023-01-09T10:04:26.795Z,5.70
2023-01-09T10:07:01.778Z,5.70
2023-01-09T10:09:46.996Z,5.80
2023-01-09T10:12:29.492Z,5.70
2023-01-09T10:15:20.807Z,5.80
2023-01-09T10:18:15.649Z,5.80
2023-01-09T10:21:06.616Z,5.80
2023-01-09T10:24:21.883Z,5.90
2023-01-09T10:26:52.236Z,5.90
2023-01-09T10:29:41.679Z,5.90
2023-01-09T10:32:54.586Z,5.90
2023-01-09T10:36:02.843Z,5.90
2023-01-09T10:38:36.836Z,6.00
2023-01-09T10:41:09.380Z,5.90
2023-01-09T10:43:49.254Z,5.90
2023-01-09T10:46:28.170Z,6.00
2023-01-09T10:49:07.548Z,5.90
2023-01-09T10:51:58.154Z,6.00
2023-01-09T10:54:25.590Z,6.00
2023-01-09T10:57:00.912Z,6.00
2023-01-09T10:59:27.841Z,6.10
2023-01-09T11:01:54.942Z,6.10
2023-01-09T11:04:37.599Z,6.10
2023-01-09T11:07:19.648Z,6.00
2023-01-09T11:10:07.228Z,6.00
2023-01-09T11:12:36.527Z,5.90
2023-01-09T11:15:21.191Z,5.90
2023-01-09T11:17:51.578Z,5.90
2023-01-09T11:20:26.643Z,5.90
2023-01-09T11:22:58.605Z,6.00
2023-01-09T11:25:29.079Z,6.00
2023-01-09T11:28:16.540Z,6.10
2023-01-09T11:33:58.753Z,6.00
2023-01-09T11:39:34.375Z,6.10
2023-01-09T11:42:05.340Z,6.00
2023-01-09T11:44:33.188Z,6.00
2023-01-09T11:47:00.124Z,6.00
2023-01-09T11:49:31.539Z,6.00
2023-01-09T11:52:20.852Z,6.00
2023-01-09T11:55:05.420Z,6.10
2023-01-09T11:57:33.735Z,6.10
2023-01-09T12:00:10.159Z,6.20
2023-01-09T12:02:53.591Z,6.20
2023-01-09T12:05:51.224Z,6.20
2023-01-09T12:08:58.076Z,6.30
2023-01-09T12:12:10.988Z,6.30
2023-01-09T12:15:02.224Z,6.40
2023-01-09T12:17:57.849Z,6.50
2023-01-09T12:21:08.518Z,6.50
2023-01-09T12:23:47.383Z,6.50
2023-01-09T12:26:20.942Z,6.70
2023-01-09T12:29:19.938Z,6.60
2023-01-09T12:32:30.155Z,6.60
2023-01-09T12:35:29.738Z,6.40
2023-01-09T12:38:21.892Z,6.40
2023-01-09T12:41:12.541Z,6.40
2023-01-09T12:44:06.103Z,6.30
2023-01-09T12:47:09.631Z,6.40
2023-01-09T12:49:50.675Z,6.50
2023-01-09T12:52:26.306Z,6.70
2023-01-09T12:55:15.885Z,6.90
2023-01-09T12:57:48.757Z,6.80
2023-01-09T13:00:30.035Z,6.70
2023-01-09T13:03:13.742Z,6.70
2023-01-09T13:05:50.168Z,6.60
2023-01-09T13:08:34.124Z,6.60
2023-01-09T13:11:21.059Z,6.40
2023-01-09T13:14:10.580Z,6.40
2023-01-09T13:16:51.005Z,6.30
2023-01-09T13:19:39.931Z,6.10
2023-01-09T13:22:08.334Z,5.90
2023-01-09T13:25:27.954Z,5.70
2023-01-09T13:28:43.864Z,5.70
2023-01-09T13:31:19.491Z,5.70
2023-01-09T13:33:55.598Z,5.70
2023-01-09T13:36:38.078Z,5.80
2023-01-09T13:39:06.229Z,5.90
2023-01-09T13:41:51.770Z,5.90
2023-01-09T13:44:18.535Z,6.00
2023-01-09T13:46:48.743Z,5.90
2023-01-09T13:49:40.376Z,5.90
2023-01-09T13:52:26.038Z,6.00
2023-01-09T13:54:55.996Z,6.00
2023-01-09T13:57:35.209Z,6.00
2023-01-09T14:00:16.872Z,6.00
2023-01-09T14:02:46.749Z,5.90
2023-01-09T14:05:36.577Z,5.90
2023-01-09T14:08:13.310Z,5.90
2023-01-09T14:10:52.954Z,5.80
2023-01-09T14:13:32.017Z,5.80
2023-01-09T14:16:24.607Z,5.80
2023-01-09T14:19:16.492Z,5.70
2023-01-09T14:21:58.225Z,5.70
2023-01-09T14:24:39.021Z,5.70
2023-01-09T14:27:44.575Z,5.80
2023-01-09T14:30:52.546Z,5.80
2023-01-09T14:33:19.345Z,5.70
2023-01-09T14:36:13.734Z,5.70
2023-01-09T14:38:49.188Z,5.70
2023-01-09T14:41:15.941Z,5.70
2023-01-09T14:44:00.712Z,5.80
2023-01-09T14:46:37.653Z,5.80
2023-01-09T14:49:20.621Z,5.70
2023-01-09T14:51:50.577Z,5.70
2023-01-09T14:54:33.046Z,5.60
2023-01-09T14:57:02.381Z,5.60
2023-01-09T14:59:29.805Z,5.50
2023-01-09T15:01:59.461Z,5.50
2023-01-09T15:04:36.311Z,5.50
2023-01-09T15:07:04.540Z,5.50
2023-01-09T15:09:55.137Z,5.50
2023-01-09T15:12:24.227Z,5.40
2023-01-09T15:14:56.342Z,5.40
2023-01-09T15:17:30.590Z,5.40
2023-01-09T15:20:01.116Z,5.40
2023-01-09T15:22:35.006Z,5.40
2023-01-09T15:25:22.771Z,5.40
2023-01-09T15:27:58.003Z,5.40
2023-01-09T15:30:35.833Z,5.40
2023-01-09T15:33:16.910Z,5.40
2023-01-09T15:35:49.501Z,5.40
2023-01-09T15:38:24.967Z,5.40
2023-01-09T15:41:09.147Z,5.30
2023-01-09T15:43:42.219Z,5.30
2023-01-09T15:46:12.139Z,5.30
2023-01-09T15:48:39.152Z,5.30
2023-01-09T15:51:10.519Z,5.30
2023-01-09T15:53:39.868Z,5.30
2023-01-09T15:56:12.572Z,5.30
2023-01-09T15:58:48.135Z,5.30
2023-01-09T16:01:31.864Z,5.20
2023-01-09T16:04:11.274Z,5.20
2023-01-09T16:06:50.412Z,5.20
2023-01-09T16:09:30.876Z,5.10
2023-01-09T16:12:01.535Z,5.10
2023-01-09T16:14:39.830Z,5.10
2023-01-09T16:17:15.751Z,5.00
2023-01-09T16:19:51.115Z,5.00
2023-01-09T16:22:31.835Z,5.00
2023-01-09T16:25:27.895Z,4.90
2023-01-09T16:28:23.160Z,5.00
2023-01-09T16:31:07.116Z,5.00
2023-01-09T16:33:35.185Z,5.00
2023-01-09T16:36:04.894Z,5.00
2023-01-09T16:38:31.655Z,5.00
2023-01-09T16:41:26.438Z,5.00
2023-01-09T16:43:53.263Z,5.00
2023-01-09T16:46:21.598Z,5.00
2023-01-09T16:48:48.981Z,5.00
2023-01-09T16:51:20.749Z,5.00
2023-01-09T16:53:49.463Z,5.10
2023-01-09T16:56:26.490Z,5.10
2023-01-09T16:58:54.751Z,5.10
2023-01-09T17:01:22.967Z,5.10
2023-01-09T17:03:52.402Z,5.10
2023-01-09T17:06:29.231Z,5.10
2023-01-09T17:08:56.525Z,5.10
2023-01-09T17:11:32.218Z,5.10
2023-01-09T17:14:02.434Z,5.10
2023-01-09T17:16:30.370Z,5.10
2023-01-09T17:18:57.203Z,5.10
2023-01-09T17:21:28.994Z,5.10
2023-01-09T17:24:15.664Z,5.10
2023-01-09T17:27:07.441Z,5.10
2023-01-09T17:29:35.215Z,5.10
2023-01-09T17:32:02.472Z,5.10
2023-01-09T17:34:29.283Z,5.00
2023-01-09T17:36:56.289Z,5.00
2023-01-09T17:39:25.911Z,5.00
2023-01-09T17:41:53.515Z,5.00
2023-01-09T17:44:20.324Z,5.00
2023-01-09T17:46:47.140Z,5.00
2023-01-09T17:49:17.959Z,5.00
2023-01-09T17:51:45.576Z,4.90
2023-01-09T17:54:13.082Z,4.90
2023-01-09T17:56:45.284Z,4.90
2023-01-09T17:59:14.275Z,4.90
2023-01-09T18:01:42.965Z,4.80
2023-01-09T18:04:10.737Z,4.80
2023-01-09T18:06:37.720Z,4.80
2023-01-09T18:09:06.624Z,4.80
2023-01-09T18:11:34.126Z,4.80
2023-01-09T18:14:01.292Z,4.80
2023-01-09T18:16:28.971Z,4.80
2023-01-09T18:18:58.331Z,4.70
2023-01-09T18:21:28.070Z,4.80
2023-01-09T18:23:57.731Z,4.80
2023-01-09T18:26:24.506Z,4.70
2023-01-09T18:28:57.270Z,4.80
2023-01-09T18:31:27.219Z,4.80
2023-01-09T18:33:56.965Z,4.80
2023-01-09T18:36:30.678Z,4.80
2023-01-09T18:39:04.469Z,4.70
2023-01-09T18:41:32.361Z,4.70
2023-01-09T18:44:01.176Z,4.70
2023-01-09T18:46:31.898Z,4.70
2023-01-09T18:49:02.436Z,4.70
2023-01-09T18:51:30.056Z,4.70
2023-01-09T18:53:57.618Z,4.70
2023-01-09T18:56:24.865Z,4.70
2023-01-09T18:58:58.983Z,4.70
2023-01-09T19:01:30.252Z,4.70
2023-01-09T19:03:59.578Z,4.70
2023-01-09T19:06:30.411Z,4.70
2023-01-09T19:08:59.262Z,4.60
2023-01-09T19:11:26.243Z,4.70
2023-01-09T19:13:53.226Z,4.70
2023-01-09T19:16:20.095Z,4.60
2023-01-09T19:18:46.904Z,4.60
2023-01-09T19:21:19.157Z,4.60
2023-01-09T19:23:47.527Z,4.60
2023-01-09T19:26:24.140Z,4.60
2023-01-09T19:28:55.280Z,4.70
2023-01-09T19:31:24.474Z,4.60
2023-01-09T19:33:52.683Z,4.70
2023-01-09T19:36:21.507Z,4.70
2023-01-09T19:38:48.460Z,4.70
2023-01-09T19:41:19.311Z,4.60
2023-01-09T19:43:47.748Z,4.70
2023-01-09T19:46:19.433Z,4.70
2023-01-09T19:48:47.181Z,4.70
2023-01-09T19:51:17.654Z,4.70
2023-01-09T19:53:49.927Z,4.70
2023-01-09T19:56:22.871Z,4.70
2023-01-09T19:58:56.033Z,4.60
2023-01-09T20:01:29.866Z,4.60
2023-01-09T20:04:02.685Z,4.60
2023-01-09T20:06:30.957Z,4.70
2023-01-09T20:09:01.351Z,4.70
2023-01-09T20:11:31.856Z,4.70
2023-01-09T20:13:58.862Z,4.60
2023-01-09T20:16:30.232Z,4.60
2023-01-09T20:19:00.201Z,4.60
2023-01-09T20:21:29.138Z,4.60
2023-01-09T20:23:59.920Z,4.60
2023-01-09T20:26:28.889Z,4.60
2023-01-09T20:28:56.944Z,4.60
2023-01-09T20:31:28.090Z,4.60
2023-01-09T20:33:55.554Z,4.60
2023-01-09T20:36:27.375Z,4.60
2023-01-09T20:38:55.129Z,4.60
2023-01-09T20:41:22.670Z,4.60
2023-01-09T20:44:04.931Z,4.70
2023-01-09T20:46:47.564Z,4.60
2023-01-09T20:49:18.271Z,4.60
2023-01-09T20:51:49.671Z,4.60
2023-01-09T20:54:21.108Z,4.60
2023-01-09T20:56:48.642Z,4.50
2023-01-09T20:59:20.201Z,4.50
2023-01-09T21:01:47.195Z,4.50
2023-01-09T21:04:14.251Z,4.50
2023-01-09T21:06:42.459Z,4.60
2023-01-09T21:09:09.296Z,4.60
2023-01-09T21:11:36.125Z,4.60
2023-01-09T21:14:02.867Z,4.60
2023-01-09T21:16:29.809Z,4.60
2023-01-09T21:18:56.750Z,4.60
2023-01-09T21:21:27.323Z,4.60
2023-01-09T21:23:58.081Z,4.60
2023-01-09T21:26:28.940Z,4.50
2023-01-09T21:28:59.079Z,4.50
2023-01-09T21:31:34.086Z,4.60
2023-01-09T21:34:04.914Z,4.60
2023-01-09T21:36:32.720Z,4.60
2023-01-09T21:38:59.629Z,4.60
2023-01-09T21:41:45.260Z,4.60
2023-01-09T21:44:32.302Z,4.70
2023-01-09T21:47:03.087Z,4.60
2023-01-09T21:49:34.684Z,4.60
2023-01-09T21:52:04.075Z,4.60
2023-01-09T21:54:30.921Z,4.60
2023-01-09T21:56:58.021Z,4.60
2023-01-09T21:59:25.071Z,4.70
2023-01-09T22:01:52.795Z,4.70
2023-01-09T22:04:23.664Z,4.70
2023-01-09T22:06:50.730Z,4.60
2023-01-09T22:09:18.079Z,4.60
2023-01-09T22:11:45.015Z,4.70
2023-01-09T22:14:15.324Z,4.70
2023-01-09T22:16:43.970Z,4.60
2023-01-09T22:19:17.972Z,4.60
2023-01-09T22:21:45.201Z,4.60
2023-01-09T22:24:18.788Z,4.50
2023-01-09T22:26:46.081Z,4.50
2023-01-09T22:29:13.628Z,4.50
2023-01-09T22:31:40.724Z,4.50
2023-01-09T22:34:07.784Z,4.50
2023-01-09T22:36:34.728Z,4.50
2023-01-09T22:39:01.663Z,4.50
2023-01-09T22:41:30.422Z,4.50
2023-01-09T22:43:57.878Z,4.50
2023-01-09T22:46:25.263Z,4.50
2023-01-09T22:48:52.030Z,4.50
2023-01-09T22:51:21.549Z,4.50
2023-01-09T22:53:48.951Z,4.50
2023-01-09T22:56:19.939Z,4.50
2023-01-09T22:58:51.952Z,4.50
2023-01-09T23:01:19.904Z,4.50
2023-01-09T23:03:47.022Z,4.50
2023-01-09T23:06:18.129Z,4.50
2023-01-09T23:08:46.099Z,4.50
2023-01-09T23:11:38.880Z,4.60
2023-01-09T23:14:05.693Z,4.60
2023-01-09T23:16:32.649Z,4.60
2023-01-09T23:18:59.463Z,4.60
2023-01-09T23:21:26.299Z,4.60
2023-01-09T23:23:53.077Z,4.60
2023-01-09T23:26:19.813Z,4.60
2023-01-09T23:28:46.501Z,4.60
2023-01-09T23:31:13.405Z,4.60
2023-01-09T23:33:40.110Z,4.60
2023-01-09T23:36:07.093Z,4.60
2023-01-09T23:38:33.816Z,4.60
2023-01-09T23:41:00.559Z,4.60
2023-01-09T23:43:27.359Z,4.60
2023-01-09T23:45:54.231Z,4.60
2023-01-09T23:48:21.005Z,4.50
2023-01-09T23:50:51.790Z,4.50
2023-01-09T23:53:20.950Z,4.50
2023-01-09T23:55:49.055Z,4.50
2023-01-09T23:58:15.872Z,4.50
